sensor_id;sensor_type;location;lat;lon;timestamp;temperature;humidity
12039;DHT22;6080;48.818;9.526;2022-08-19T00:01:21;21.40;99.90
12039;DHT22;6080;48.818;9.526;2022-08-19T00:03:48;21.50;99.90
12039;DHT22;6080;48.818;9.526;2022-08-19T00:06:14;21.50;99.90
12039;DHT22;6080;48.818;9.526;2022-08-19T00:08:41;21.50;99.90
12039;DHT22;6080;48.818;9.526;2022-08-19T00:11:07;21.50;99.90
12039;DHT22;6080;48.818;9.526;2022-08-19T00:13:33;21.50;99.90
12039;DHT22;6080;48.818;9.526;2022-08-19T00:16:00;21.50;99.90
12039;DHT22;6080;48.818;9.526;2022-08-19T00:18:26;21.50;99.90
12039;DHT22;6080;48.818;9.526;2022-08-19T00:20:52;21.40;99.90
12039;DHT22;6080;48.818;9.526;2022-08-19T00:23:18;21.40;99.90
12039;DHT22;6080;48.818;9.526;2022-08-19T00:25:45;21.40;99.90
12039;DHT22;6080;48.818;9.526;2022-08-19T00:28:11;21.40;99.90
12039;DHT22;6080;48.818;9.526;2022-08-19T00:30:37;21.50;99.90
12039;DHT22;6080;48.818;9.526;2022-08-19T00:33:03;21.50;99.90
12039;DHT22;6080;48.818;9.526;2022-08-19T00:35:29;21.50;99.90
12039;DHT22;6080;48.818;9.526;2022-08-19T00:37:55;21.50;99.90
12039;DHT22;6080;48.818;9.526;2022-08-19T00:40:21;21.50;99.90
12039;DHT22;6080;48.818;9.526;2022-08-19T00:42:47;21.40;99.90
12039;DHT22;6080;48.818;9.526;2022-08-19T00:45:18;21.30;99.90
12039;DHT22;6080;48.818;9.526;2022-08-19T00:47:45;21.20;99.90
12039;DHT22;6080;48.818;9.526;2022-08-19T00:50:15;21.10;99.90
12039;DHT22;6080;48.818;9.526;2022-08-19T00:52:45;21.00;99.90
12039;DHT22;6080;48.818;9.526;2022-08-19T00:55:19;20.90;99.90
12039;DHT22;6080;48.818;9.526;2022-08-19T00:57:53;20.90;99.90
12039;DHT22;6080;48.818;9.526;2022-08-19T01:00:24;20.90;99.90
12039;DHT22;6080;48.818;9.526;2022-08-19T01:02:50;20.80;99.90
12039;DHT22;6080;48.818;9.526;2022-08-19T01:05:22;20.80;99.90
12039;DHT22;6080;48.818;9.526;2022-08-19T01:07:49;20.80;99.90
12039;DHT22;6080;48.818;9.526;2022-08-19T01:10:20;20.80;99.90
12039;DHT22;6080;48.818;9.526;2022-08-19T01:12:47;20.90;99.90
12039;DHT22;6080;48.818;9.526;2022-08-19T01:15:17;20.90;99.90
12039;DHT22;6080;48.818;9.526;2022-08-19T01:17:44;20.90;99.90
12039;DHT22;6080;48.818;9.526;2022-08-19T01:20:17;20.90;99.90
12039;DHT22;6080;48.818;9.526;2022-08-19T01:22:50;20.90;99.90
12039;DHT22;6080;48.818;9.526;2022-08-19T01:25:19;21.00;99.90
12039;DHT22;6080;48.818;9.526;2022-08-19T01:27:49;21.00;99.90
12039;DHT22;6080;48.818;9.526;2022-08-19T01:30:24;21.00;99.90
12039;DHT22;6080;48.818;9.526;2022-08-19T01:32:52;21.00;99.90
12039;DHT22;6080;48.818;9.526;2022-08-19T01:35:18;21.00;99.90
12039;DHT22;6080;48.818;9.526;2022-08-19T01:38:23;21.00;99.90
12039;DHT22;6080;48.818;9.526;2022-08-19T01:40:40;21.00;99.90
12039;DHT22;6080;48.818;9.526;2022-08-19T01:43:07;21.10;99.90
12039;DHT22;6080;48.818;9.526;2022-08-19T01:45:35;21.10;99.90
12039;DHT22;6080;48.818;9.526;2022-08-19T01:48:02;21.10;99.90
12039;DHT22;6080;48.818;9.526;2022-08-19T01:50:29;21.00;99.90
12039;DHT22;6080;48.818;9.526;2022-08-19T01:52:56;21.00;99.90
12039;DHT22;6080;48.818;9.526;2022-08-19T01:55:22;21.10;99.90
12039;DHT22;6080;48.818;9.526;2022-08-19T01:57:56;21.00;99.90
12039;DHT22;6080;48.818;9.526;2022-08-19T02:00:25;21.00;99.90
12039;DHT22;6080;48.818;9.526;2022-08-19T02:02:53;21.00;99.90
12039;DHT22;6080;48.818;9.526;2022-08-19T02:05:20;21.00;99.90
12039;DHT22;6080;48.818;9.526;2022-08-19T02:07:47;21.00;99.90
12039;DHT22;6080;48.818;9.526;2022-08-19T02:10:20;20.90;99.90
12039;DHT22;6080;48.818;9.526;2022-08-19T02:12:46;20.90;99.90
12039;DHT22;6080;48.818;9.526;2022-08-19T02:15:13;20.90;99.90
12039;DHT22;6080;48.818;9.526;2022-08-19T02:17:40;20.80;99.90
12039;DHT22;6080;48.818;9.526;2022-08-19T02:20:06;20.80;99.90
12039;DHT22;6080;48.818;9.526;2022-08-19T02:22:33;20.80;99.90
12039;DHT22;6080;48.818;9.526;2022-08-19T02:24:59;20.80;99.90
12039;DHT22;6080;48.818;9.526;2022-08-19T02:27:25;20.80;99.90
12039;DHT22;6080;48.818;9.526;2022-08-19T02:29:52;20.80;99.90
12039;DHT22;6080;48.818;9.526;2022-08-19T02:32:19;20.80;99.90
12039;DHT22;6080;48.818;9.526;2022-08-19T02:34:46;20.70;99.90
12039;DHT22;6080;48.818;9.526;2022-08-19T02:37:12;20.80;99.90
12039;DHT22;6080;48.818;9.526;2022-08-19T02:39:57;20.80;99.90
12039;DHT22;6080;48.818;9.526;2022-08-19T02:42:23;20.70;99.90
12039;DHT22;6080;48.818;9.526;2022-08-19T02:44:49;20.70;99.90
12039;DHT22;6080;48.818;9.526;2022-08-19T02:47:15;20.70;99.90
12039;DHT22;6080;48.818;9.526;2022-08-19T02:49:41;20.60;99.90
12039;DHT22;6080;48.818;9.526;2022-08-19T02:52:07;20.50;99.90
12039;DHT22;6080;48.818;9.526;2022-08-19T02:54:33;20.50;99.90
12039;DHT22;6080;48.818;9.526;2022-08-19T02:56:59;20.50;99.90
12039;DHT22;6080;48.818;9.526;2022-08-19T02:59:25;20.40;99.90
12039;DHT22;6080;48.818;9.526;2022-08-19T03:01:52;20.40;99.90
12039;DHT22;6080;48.818;9.526;2022-08-19T03:04:18;20.40;99.90
12039;DHT22;6080;48.818;9.526;2022-08-19T03:06:46;20.40;99.90
12039;DHT22;6080;48.818;9.526;2022-08-19T03:09:13;20.30;99.90
12039;DHT22;6080;48.818;9.526;2022-08-19T03:11:40;20.30;99.90
12039;DHT22;6080;48.818;9.526;2022-08-19T03:14:08;20.20;99.90
12039;DHT22;6080;48.818;9.526;2022-08-19T03:16:43;20.20;99.90
12039;DHT22;6080;48.818;9.526;2022-08-19T03:19:09;20.10;99.90
12039;DHT22;6080;48.818;9.526;2022-08-19T03:21:35;20.00;99.90
12039;DHT22;6080;48.818;9.526;2022-08-19T03:24:04;20.00;99.90
12039;DHT22;6080;48.818;9.526;2022-08-19T03:26:31;20.00;99.90
12039;DHT22;6080;48.818;9.526;2022-08-19T03:28:57;20.00;99.90
12039;DHT22;6080;48.818;9.526;2022-08-19T03:31:24;20.00;99.90
12039;DHT22;6080;48.818;9.526;2022-08-19T03:33:51;20.00;99.90
12039;DHT22;6080;48.818;9.526;2022-08-19T03:36:23;20.00;99.90
12039;DHT22;6080;48.818;9.526;2022-08-19T03:38:52;20.00;99.90
12039;DHT22;6080;48.818;9.526;2022-08-19T03:41:36;20.00;99.90
12039;DHT22;6080;48.818;9.526;2022-08-19T03:44:03;20.00;99.90
12039;DHT22;6080;48.818;9.526;2022-08-19T03:46:33;20.00;99.90
12039;DHT22;6080;48.818;9.526;2022-08-19T03:49:00;20.00;99.90
12039;DHT22;6080;48.818;9.526;2022-08-19T03:51:36;20.00;99.90
12039;DHT22;6080;48.818;9.526;2022-08-19T03:54:05;20.00;99.90
12039;DHT22;6080;48.818;9.526;2022-08-19T03:56:33;20.00;99.90
12039;DHT22;6080;48.818;9.526;2022-08-19T03:59:01;20.00;99.90
12039;DHT22;6080;48.818;9.526;2022-08-19T04:01:28;20.00;99.90
12039;DHT22;6080;48.818;9.526;2022-08-19T04:03:55;20.00;99.90
12039;DHT22;6080;48.818;9.526;2022-08-19T04:06:27;20.00;99.90
12039;DHT22;6080;48.818;9.526;2022-08-19T04:08:55;20.00;99.90
12039;DHT22;6080;48.818;9.526;2022-08-19T04:11:24;19.90;99.90
12039;DHT22;6080;48.818;9.526;2022-08-19T04:13:51;19.90;99.90
12039;DHT22;6080;48.818;9.526;2022-08-19T04:16:19;19.90;99.90
12039;DHT22;6080;48.818;9.526;2022-08-19T04:18:46;19.90;99.90
12039;DHT22;6080;48.818;9.526;2022-08-19T04:21:18;19.90;99.90
12039;DHT22;6080;48.818;9.526;2022-08-19T04:23:45;19.90;99.90
12039;DHT22;6080;48.818;9.526;2022-08-19T04:26:19;20.00;99.90
12039;DHT22;6080;48.818;9.526;2022-08-19T04:28:45;20.00;99.90
12039;DHT22;6080;48.818;9.526;2022-08-19T04:31:14;19.90;99.90
12039;DHT22;6080;48.818;9.526;2022-08-19T04:33:41;19.90;99.90
12039;DHT22;6080;48.818;9.526;2022-08-19T04:36:07;19.90;99.90
12039;DHT22;6080;48.818;9.526;2022-08-19T04:38:33;20.00;99.90
12039;DHT22;6080;48.818;9.526;2022-08-19T04:40:59;20.00;99.90
12039;DHT22;6080;48.818;9.526;2022-08-19T04:43:47;20.00;99.90
12039;DHT22;6080;48.818;9.526;2022-08-19T04:46:14;20.10;99.90
12039;DHT22;6080;48.818;9.526;2022-08-19T04:48:41;20.10;99.90
12039;DHT22;6080;48.818;9.526;2022-08-19T04:51:11;20.10;99.90
12039;DHT22;6080;48.818;9.526;2022-08-19T04:53:40;20.10;99.90
12039;DHT22;6080;48.818;9.526;2022-08-19T04:56:09;20.10;99.90
12039;DHT22;6080;48.818;9.526;2022-08-19T04:58:36;20.20;99.90
12039;DHT22;6080;48.818;9.526;2022-08-19T05:01:03;20.20;99.90
12039;DHT22;6080;48.818;9.526;2022-08-19T05:03:29;20.20;99.90
12039;DHT22;6080;48.818;9.526;2022-08-19T05:06:03;20.20;99.90
12039;DHT22;6080;48.818;9.526;2022-08-19T05:08:29;20.20;99.90
12039;DHT22;6080;48.818;9.526;2022-08-19T05:10:56;20.20;99.90
12039;DHT22;6080;48.818;9.526;2022-08-19T05:13:23;20.30;99.90
12039;DHT22;6080;48.818;9.526;2022-08-19T05:15:57;20.30;99.90
12039;DHT22;6080;48.818;9.526;2022-08-19T05:18:23;20.30;99.90
12039;DHT22;6080;48.818;9.526;2022-08-19T05:21:12;20.30;99.90
12039;DHT22;6080;48.818;9.526;2022-08-19T05:23:58;20.30;99.90
12039;DHT22;6080;48.818;9.526;2022-08-19T05:26:25;20.30;99.90
12039;DHT22;6080;48.818;9.526;2022-08-19T05:28:54;20.30;99.90
12039;DHT22;6080;48.818;9.526;2022-08-19T05:31:20;20.30;99.90
12039;DHT22;6080;48.818;9.526;2022-08-19T05:33:47;20.30;99.90
12039;DHT22;6080;48.818;9.526;2022-08-19T05:36:13;20.30;99.90
12039;DHT22;6080;48.818;9.526;2022-08-19T05:38:40;20.30;99.90
12039;DHT22;6080;48.818;9.526;2022-08-19T05:41:11;20.30;99.90
12039;DHT22;6080;48.818;9.526;2022-08-19T05:43:38;20.30;99.90
12039;DHT22;6080;48.818;9.526;2022-08-19T05:46:05;20.30;99.90
12039;DHT22;6080;48.818;9.526;2022-08-19T05:48:33;20.30;99.90
12039;DHT22;6080;48.818;9.526;2022-08-19T05:51:06;20.30;99.90
12039;DHT22;6080;48.818;9.526;2022-08-19T05:53:32;20.30;99.90
12039;DHT22;6080;48.818;9.526;2022-08-19T05:56:07;20.30;99.90
12039;DHT22;6080;48.818;9.526;2022-08-19T05:58:34;20.30;99.90
12039;DHT22;6080;48.818;9.526;2022-08-19T06:01:01;20.30;99.90
12039;DHT22;6080;48.818;9.526;2022-08-19T06:03:35;20.30;99.90
12039;DHT22;6080;48.818;9.526;2022-08-19T06:06:03;20.30;99.90
12039;DHT22;6080;48.818;9.526;2022-08-19T06:08:30;20.20;99.90
12039;DHT22;6080;48.818;9.526;2022-08-19T06:10:56;20.10;99.90
12039;DHT22;6080;48.818;9.526;2022-08-19T06:13:22;19.90;99.90
12039;DHT22;6080;48.818;9.526;2022-08-19T06:15:49;19.80;99.90
12039;DHT22;6080;48.818;9.526;2022-08-19T06:18:15;19.70;99.90
12039;DHT22;6080;48.818;9.526;2022-08-19T06:20:42;19.70;99.90
12039;DHT22;6080;48.818;9.526;2022-08-19T06:23:08;19.70;99.90
12039;DHT22;6080;48.818;9.526;2022-08-19T06:25:35;19.60;99.90
12039;DHT22;6080;48.818;9.526;2022-08-19T06:28:01;19.60;99.90
12039;DHT22;6080;48.818;9.526;2022-08-19T06:30:27;19.50;99.90
12039;DHT22;6080;48.818;9.526;2022-08-19T06:32:53;19.40;99.90
12039;DHT22;6080;48.818;9.526;2022-08-19T06:35:19;19.40;99.90
12039;DHT22;6080;48.818;9.526;2022-08-19T06:37:45;19.40;99.90
12039;DHT22;6080;48.818;9.526;2022-08-19T06:40:11;19.40;99.90
12039;DHT22;6080;48.818;9.526;2022-08-19T06:42:39;19.50;99.90
12039;DHT22;6080;48.818;9.526;2022-08-19T06:45:05;19.50;99.90
12039;DHT22;6080;48.818;9.526;2022-08-19T06:47:33;19.60;99.90
12039;DHT22;6080;48.818;9.526;2022-08-19T06:50:00;19.60;99.90
12039;DHT22;6080;48.818;9.526;2022-08-19T06:52:32;19.60;99.90
12039;DHT22;6080;48.818;9.526;2022-08-19T06:55:00;19.60;99.90
12039;DHT22;6080;48.818;9.526;2022-08-19T06:57:26;19.70;99.90
12039;DHT22;6080;48.818;9.526;2022-08-19T06:59:53;19.70;99.90
12039;DHT22;6080;48.818;9.526;2022-08-19T07:02:19;19.70;99.90
12039;DHT22;6080;48.818;9.526;2022-08-19T07:04:46;19.80;99.90
12039;DHT22;6080;48.818;9.526;2022-08-19T07:07:14;19.90;99.90
12039;DHT22;6080;48.818;9.526;2022-08-19T07:09:43;20.00;99.90
12039;DHT22;6080;48.818;9.526;2022-08-19T07:12:11;20.00;99.90
12039;DHT22;6080;48.818;9.526;2022-08-19T07:14:39;20.00;99.90
12039;DHT22;6080;48.818;9.526;2022-08-19T07:17:10;20.00;99.90
12039;DHT22;6080;48.818;9.526;2022-08-19T07:19:37;20.00;99.90
12039;DHT22;6080;48.818;9.526;2022-08-19T07:22:06;19.90;99.90
12039;DHT22;6080;48.818;9.526;2022-08-19T07:24:33;19.80;99.90
12039;DHT22;6080;48.818;9.526;2022-08-19T07:27:01;19.80;99.90
12039;DHT22;6080;48.818;9.526;2022-08-19T07:29:31;19.90;99.90
12039;DHT22;6080;48.818;9.526;2022-08-19T07:31:59;19.90;99.90
12039;DHT22;6080;48.818;9.526;2022-08-19T07:34:28;19.90;99.90
12039;DHT22;6080;48.818;9.526;2022-08-19T07:36:54;19.80;99.90
12039;DHT22;6080;48.818;9.526;2022-08-19T07:39:29;19.80;99.90
12039;DHT22;6080;48.818;9.526;2022-08-19T07:41:58;19.70;99.90
12039;DHT22;6080;48.818;9.526;2022-08-19T07:44:24;19.70;99.90
12039;DHT22;6080;48.818;9.526;2022-08-19T07:46:53;19.80;99.90
12039;DHT22;6080;48.818;9.526;2022-08-19T07:49:21;19.70;99.90
12039;DHT22;6080;48.818;9.526;2022-08-19T07:51:50;19.80;99.90
12039;DHT22;6080;48.818;9.526;2022-08-19T07:54:17;19.80;99.90
12039;DHT22;6080;48.818;9.526;2022-08-19T07:56:43;19.90;99.90
12039;DHT22;6080;48.818;9.526;2022-08-19T07:59:10;19.90;99.90
12039;DHT22;6080;48.818;9.526;2022-08-19T08:01:36;20.00;99.90
12039;DHT22;6080;48.818;9.526;2022-08-19T08:04:02;20.10;99.90
12039;DHT22;6080;48.818;9.526;2022-08-19T08:06:47;20.20;99.90
12039;DHT22;6080;48.818;9.526;2022-08-19T08:09:35;20.30;99.90
12039;DHT22;6080;48.818;9.526;2022-08-19T08:12:09;20.40;99.90
12039;DHT22;6080;48.818;9.526;2022-08-19T08:14:45;20.50;99.90
12039;DHT22;6080;48.818;9.526;2022-08-19T08:17:12;20.60;99.90
12039;DHT22;6080;48.818;9.526;2022-08-19T08:19:39;20.60;99.90
12039;DHT22;6080;48.818;9.526;2022-08-19T08:22:08;20.50;99.90
12039;DHT22;6080;48.818;9.526;2022-08-19T08:24:54;20.50;99.90
12039;DHT22;6080;48.818;9.526;2022-08-19T08:27:21;20.60;99.90
12039;DHT22;6080;48.818;9.526;2022-08-19T08:29:46;20.60;99.90
12039;DHT22;6080;48.818;9.526;2022-08-19T08:32:14;20.50;99.90
12039;DHT22;6080;48.818;9.526;2022-08-19T08:34:40;20.50;99.90
12039;DHT22;6080;48.818;9.526;2022-08-19T08:37:06;20.60;99.90
12039;DHT22;6080;48.818;9.526;2022-08-19T08:39:32;20.60;99.90
12039;DHT22;6080;48.818;9.526;2022-08-19T08:44:39;20.90;99.90
12039;DHT22;6080;48.818;9.526;2022-08-19T08:47:15;21.00;99.90
12039;DHT22;6080;48.818;9.526;2022-08-19T08:49:54;21.00;99.90
12039;DHT22;6080;48.818;9.526;2022-08-19T08:54:55;20.80;99.90
12039;DHT22;6080;48.818;9.526;2022-08-19T08:57:35;20.70;99.90
12039;DHT22;6080;48.818;9.526;2022-08-19T09:00:07;20.60;99.90
12039;DHT22;6080;48.818;9.526;2022-08-19T09:02:35;20.60;99.90
12039;DHT22;6080;48.818;9.526;2022-08-19T09:05:01;20.60;99.90
12039;DHT22;6080;48.818;9.526;2022-08-19T09:10:30;20.40;99.90
12039;DHT22;6080;48.818;9.526;2022-08-19T09:16:02;20.20;99.90
12039;DHT22;6080;48.818;9.526;2022-08-19T09:18:51;20.20;99.90
12039;DHT22;6080;48.818;9.526;2022-08-19T09:21:24;20.20;99.90
12039;DHT22;6080;48.818;9.526;2022-08-19T09:23:51;20.10;99.90
12039;DHT22;6080;48.818;9.526;2022-08-19T09:26:20;20.20;99.90
12039;DHT22;6080;48.818;9.526;2022-08-19T09:28:47;20.10;99.90
12039;DHT22;6080;48.818;9.526;2022-08-19T09:31:22;20.20;99.90
12039;DHT22;6080;48.818;9.526;2022-08-19T09:33:49;20.20;99.90
12039;DHT22;6080;48.818;9.526;2022-08-19T09:36:18;20.30;99.90
12039;DHT22;6080;48.818;9.526;2022-08-19T09:38:45;20.30;99.90
12039;DHT22;6080;48.818;9.526;2022-08-19T09:41:14;20.30;99.90
12039;DHT22;6080;48.818;9.526;2022-08-19T09:43:41;20.30;99.90
12039;DHT22;6080;48.818;9.526;2022-08-19T09:46:08;20.30;99.90
12039;DHT22;6080;48.818;9.526;2022-08-19T09:48:41;20.30;99.90
12039;DHT22;6080;48.818;9.526;2022-08-19T09:51:10;20.30;99.90
12039;DHT22;6080;48.818;9.526;2022-08-19T09:53:37;20.30;99.90
12039;DHT22;6080;48.818;9.526;2022-08-19T09:56:05;20.40;99.90
12039;DHT22;6080;48.818;9.526;2022-08-19T09:58:32;20.40;99.90
12039;DHT22;6080;48.818;9.526;2022-08-19T10:00:59;20.50;99.90
12039;DHT22;6080;48.818;9.526;2022-08-19T10:03:27;20.60;99.90
12039;DHT22;6080;48.818;9.526;2022-08-19T10:05:54;20.80;99.90
12039;DHT22;6080;48.818;9.526;2022-08-19T10:08:23;20.90;99.90
12039;DHT22;6080;48.818;9.526;2022-08-19T10:10:49;21.00;99.90
12039;DHT22;6080;48.818;9.526;2022-08-19T10:13:18;21.10;99.90
12039;DHT22;6080;48.818;9.526;2022-08-19T10:15:47;21.10;99.90
12039;DHT22;6080;48.818;9.526;2022-08-19T10:18:16;21.20;99.90
12039;DHT22;6080;48.818;9.526;2022-08-19T10:20:46;21.20;99.90
12039;DHT22;6080;48.818;9.526;2022-08-19T10:23:13;21.30;99.90
12039;DHT22;6080;48.818;9.526;2022-08-19T10:25:41;21.40;99.90
12039;DHT22;6080;48.818;9.526;2022-08-19T10:28:07;21.70;99.90
12039;DHT22;6080;48.818;9.526;2022-08-19T10:30:35;22.00;99.90
12039;DHT22;6080;48.818;9.526;2022-08-19T10:33:02;22.20;99.90
12039;DHT22;6080;48.818;9.526;2022-08-19T10:35:28;22.10;99.90
12039;DHT22;6080;48.818;9.526;2022-08-19T10:37:55;22.00;99.90
12039;DHT22;6080;48.818;9.526;2022-08-19T10:40:26;22.00;99.90
12039;DHT22;6080;48.818;9.526;2022-08-19T10:42:53;22.00;99.90
12039;DHT22;6080;48.818;9.526;2022-08-19T10:45:19;21.90;99.90
12039;DHT22;6080;48.818;9.526;2022-08-19T10:47:48;22.00;99.90
12039;DHT22;6080;48.818;9.526;2022-08-19T10:50:14;22.00;99.90
12039;DHT22;6080;48.818;9.526;2022-08-19T10:53:04;22.00;99.90
12039;DHT22;6080;48.818;9.526;2022-08-19T10:55:30;22.00;99.90
12039;DHT22;6080;48.818;9.526;2022-08-19T10:58:17;22.00;99.90
12039;DHT22;6080;48.818;9.526;2022-08-19T11:00:56;21.90;99.90
12039;DHT22;6080;48.818;9.526;2022-08-19T11:03:22;21.80;99.90
12039;DHT22;6080;48.818;9.526;2022-08-19T11:06:03;21.80;99.90
12039;DHT22;6080;48.818;9.526;2022-08-19T11:08:29;21.70;99.90
12039;DHT22;6080;48.818;9.526;2022-08-19T11:10:59;21.70;99.90
12039;DHT22;6080;48.818;9.526;2022-08-19T11:13:30;21.70;99.90
12039;DHT22;6080;48.818;9.526;2022-08-19T11:16:01;21.70;99.90
12039;DHT22;6080;48.818;9.526;2022-08-19T11:18:27;21.70;99.90
12039;DHT22;6080;48.818;9.526;2022-08-19T11:20:53;21.60;99.90
12039;DHT22;6080;48.818;9.526;2022-08-19T11:23:19;21.50;99.90
12039;DHT22;6080;48.818;9.526;2022-08-19T11:25:46;21.40;99.90
12039;DHT22;6080;48.818;9.526;2022-08-19T11:28:12;21.40;99.90
12039;DHT22;6080;48.818;9.526;2022-08-19T11:30:39;21.30;99.90
12039;DHT22;6080;48.818;9.526;2022-08-19T11:33:05;21.20;99.90
12039;DHT22;6080;48.818;9.526;2022-08-19T11:35:31;21.20;99.90
12039;DHT22;6080;48.818;9.526;2022-08-19T11:37:58;21.10;99.90
12039;DHT22;6080;48.818;9.526;2022-08-19T11:40:25;21.20;99.90
12039;DHT22;6080;48.818;9.526;2022-08-19T11:42:51;21.10;99.90
12039;DHT22;6080;48.818;9.526;2022-08-19T11:45:21;21.10;99.90
12039;DHT22;6080;48.818;9.526;2022-08-19T11:47:47;21.10;99.90
12039;DHT22;6080;48.818;9.526;2022-08-19T11:50:15;21.10;99.90
12039;DHT22;6080;48.818;9.526;2022-08-19T11:52:41;21.10;99.90
12039;DHT22;6080;48.818;9.526;2022-08-19T11:55:07;21.10;99.90
12039;DHT22;6080;48.818;9.526;2022-08-19T11:57:33;21.00;99.90
12039;DHT22;6080;48.818;9.526;2022-08-19T11:59:59;20.90;99.90
12039;DHT22;6080;48.818;9.526;2022-08-19T12:02:27;20.70;99.90
12039;DHT22;6080;48.818;9.526;2022-08-19T12:04:52;20.60;99.90
12039;DHT22;6080;48.818;9.526;2022-08-19T12:07:19;20.40;99.90
12039;DHT22;6080;48.818;9.526;2022-08-19T12:09:45;20.20;99.90
12039;DHT22;6080;48.818;9.526;2022-08-19T12:12:11;20.10;99.90
12039;DHT22;6080;48.818;9.526;2022-08-19T12:14:37;20.00;99.90
12039;DHT22;6080;48.818;9.526;2022-08-19T12:17:04;19.90;99.90
12039;DHT22;6080;48.818;9.526;2022-08-19T12:19:32;19.90;99.90
12039;DHT22;6080;48.818;9.526;2022-08-19T12:22:00;19.90;99.90
12039;DHT22;6080;48.818;9.526;2022-08-19T12:24:31;19.80;99.90
12039;DHT22;6080;48.818;9.526;2022-08-19T12:26:57;19.90;99.90
12039;DHT22;6080;48.818;9.526;2022-08-19T12:29:24;19.90;99.90
12039;DHT22;6080;48.818;9.526;2022-08-19T12:31:54;19.90;99.90
12039;DHT22;6080;48.818;9.526;2022-08-19T12:34:26;19.90;99.90
12039;DHT22;6080;48.818;9.526;2022-08-19T12:37:00;19.90;99.90
12039;DHT22;6080;48.818;9.526;2022-08-19T12:39:26;19.90;99.90
12039;DHT22;6080;48.818;9.526;2022-08-19T12:41:52;19.90;99.90
12039;DHT22;6080;48.818;9.526;2022-08-19T12:44:18;19.80;99.90
12039;DHT22;6080;48.818;9.526;2022-08-19T12:46:44;19.80;99.90
12039;DHT22;6080;48.818;9.526;2022-08-19T12:49:10;19.90;99.90
12039;DHT22;6080;48.818;9.526;2022-08-19T12:51:36;19.90;99.90
12039;DHT22;6080;48.818;9.526;2022-08-19T12:54:02;19.90;99.90
12039;DHT22;6080;48.818;9.526;2022-08-19T12:56:29;19.90;99.90
12039;DHT22;6080;48.818;9.526;2022-08-19T12:58:55;20.00;99.90
12039;DHT22;6080;48.818;9.526;2022-08-19T13:01:21;20.00;99.90
12039;DHT22;6080;48.818;9.526;2022-08-19T13:03:47;20.10;99.90
12039;DHT22;6080;48.818;9.526;2022-08-19T13:06:13;20.10;99.90
12039;DHT22;6080;48.818;9.526;2022-08-19T13:08:39;20.10;99.90
12039;DHT22;6080;48.818;9.526;2022-08-19T13:11:14;20.20;99.90
12039;DHT22;6080;48.818;9.526;2022-08-19T13:13:42;20.10;99.90
12039;DHT22;6080;48.818;9.526;2022-08-19T13:16:10;20.00;99.90
12039;DHT22;6080;48.818;9.526;2022-08-19T13:18:37;19.90;99.90
12039;DHT22;6080;48.818;9.526;2022-08-19T13:21:04;19.90;99.90
12039;DHT22;6080;48.818;9.526;2022-08-19T13:23:33;19.90;99.90
12039;DHT22;6080;48.818;9.526;2022-08-19T13:26:00;19.90;99.90
12039;DHT22;6080;48.818;9.526;2022-08-19T13:28:28;19.90;99.90
12039;DHT22;6080;48.818;9.526;2022-08-19T13:31:18;19.90;99.90
12039;DHT22;6080;48.818;9.526;2022-08-19T13:34:03;19.90;99.90
12039;DHT22;6080;48.818;9.526;2022-08-19T13:36:29;19.90;99.90
12039;DHT22;6080;48.818;9.526;2022-08-19T13:38:55;19.90;99.90
12039;DHT22;6080;48.818;9.526;2022-08-19T13:41:22;19.90;99.90
12039;DHT22;6080;48.818;9.526;2022-08-19T13:43:47;19.90;99.90
12039;DHT22;6080;48.818;9.526;2022-08-19T13:46:15;19.90;99.90
12039;DHT22;6080;48.818;9.526;2022-08-19T13:48:41;19.90;99.90
12039;DHT22;6080;48.818;9.526;2022-08-19T13:51:08;19.90;99.90
12039;DHT22;6080;48.818;9.526;2022-08-19T13:53:37;19.90;99.90
12039;DHT22;6080;48.818;9.526;2022-08-19T13:56:10;19.90;99.90
12039;DHT22;6080;48.818;9.526;2022-08-19T13:58:37;19.90;99.90
12039;DHT22;6080;48.818;9.526;2022-08-19T14:01:04;19.90;99.90
12039;DHT22;6080;48.818;9.526;2022-08-19T14:03:31;19.90;99.90
12039;DHT22;6080;48.818;9.526;2022-08-19T14:05:57;19.90;99.90
12039;DHT22;6080;48.818;9.526;2022-08-19T14:08:24;19.90;99.90
12039;DHT22;6080;48.818;9.526;2022-08-19T14:10:50;19.90;99.90
12039;DHT22;6080;48.818;9.526;2022-08-19T14:13:18;19.90;99.90
12039;DHT22;6080;48.818;9.526;2022-08-19T14:15:46;19.90;99.90
12039;DHT22;6080;48.818;9.526;2022-08-19T14:18:14;19.90;99.90
12039;DHT22;6080;48.818;9.526;2022-08-19T14:20:41;19.90;99.90
12039;DHT22;6080;48.818;9.526;2022-08-19T14:23:07;19.90;99.90
12039;DHT22;6080;48.818;9.526;2022-08-19T14:25:33;19.90;99.90
12039;DHT22;6080;48.818;9.526;2022-08-19T14:28:00;19.90;99.90
12039;DHT22;6080;48.818;9.526;2022-08-19T14:30:31;20.10;99.90
12039;DHT22;6080;48.818;9.526;2022-08-19T14:32:59;20.30;99.90
12039;DHT22;6080;48.818;9.526;2022-08-19T14:35:26;20.50;99.90
12039;DHT22;6080;48.818;9.526;2022-08-19T14:37:53;20.80;99.90
12039;DHT22;6080;48.818;9.526;2022-08-19T14:40:26;20.90;99.90
12039;DHT22;6080;48.818;9.526;2022-08-19T14:42:54;21.10;99.90
12039;DHT22;6080;48.818;9.526;2022-08-19T14:45:31;21.10;99.90
12039;DHT22;6080;48.818;9.526;2022-08-19T14:47:57;21.10;99.90
12039;DHT22;6080;48.818;9.526;2022-08-19T14:50:25;21.10;99.90
12039;DHT22;6080;48.818;9.526;2022-08-19T14:52:58;21.00;99.90
12039;DHT22;6080;48.818;9.526;2022-08-19T14:55:24;20.90;99.90
12039;DHT22;6080;48.818;9.526;2022-08-19T14:57:50;20.90;99.90
12039;DHT22;6080;48.818;9.526;2022-08-19T15:00:17;20.70;99.90
12039;DHT22;6080;48.818;9.526;2022-08-19T15:02:43;20.70;99.90
12039;DHT22;6080;48.818;9.526;2022-08-19T15:05:12;20.60;99.90
12039;DHT22;6080;48.818;9.526;2022-08-19T15:07:39;20.60;99.90
12039;DHT22;6080;48.818;9.526;2022-08-19T15:10:06;20.60;99.90
12039;DHT22;6080;48.818;9.526;2022-08-19T15:12:34;20.60;99.90
12039;DHT22;6080;48.818;9.526;2022-08-19T15:15:00;20.60;99.90
12039;DHT22;6080;48.818;9.526;2022-08-19T15:17:27;20.70;99.90
12039;DHT22;6080;48.818;9.526;2022-08-19T15:19:52;20.70;99.90
12039;DHT22;6080;48.818;9.526;2022-08-19T15:22:18;20.80;99.90
12039;DHT22;6080;48.818;9.526;2022-08-19T15:24:45;21.00;99.90
12039;DHT22;6080;48.818;9.526;2022-08-19T15:27:12;21.10;99.90
12039;DHT22;6080;48.818;9.526;2022-08-19T15:29:38;21.20;99.90
12039;DHT22;6080;48.818;9.526;2022-08-19T15:32:06;21.20;99.90
12039;DHT22;6080;48.818;9.526;2022-08-19T15:34:33;21.10;99.90
12039;DHT22;6080;48.818;9.526;2022-08-19T15:37:00;21.00;99.90
12039;DHT22;6080;48.818;9.526;2022-08-19T15:39:25;20.80;99.90
12039;DHT22;6080;48.818;9.526;2022-08-19T15:41:51;20.80;99.90
12039;DHT22;6080;48.818;9.526;2022-08-19T15:44:19;20.70;99.90
12039;DHT22;6080;48.818;9.526;2022-08-19T15:46:47;20.60;99.90
12039;DHT22;6080;48.818;9.526;2022-08-19T15:49:15;20.40;99.90
12039;DHT22;6080;48.818;9.526;2022-08-19T15:51:43;20.30;99.90
12039;DHT22;6080;48.818;9.526;2022-08-19T15:54:13;20.20;99.90
12039;DHT22;6080;48.818;9.526;2022-08-19T15:56:39;20.20;99.90
12039;DHT22;6080;48.818;9.526;2022-08-19T15:59:31;20.10;99.90
12039;DHT22;6080;48.818;9.526;2022-08-19T16:02:18;20.10;99.90
12039;DHT22;6080;48.818;9.526;2022-08-19T16:05:04;20.00;99.90